Time;durP1;ratioP1;P1;durP2;ratioP2;P2;SDS_P1;SDS_P2;PMS_P1;PMS_P2;Temp;Humidity;BMP_temperature;BMP_pressure;BME280_temperature;BME280_humidity;BME280_pressure;Samples;Min_cycle;Max_cycle;Signal;HPM_P1;HPM_P2
2021/05/27 00:02:02;;;;;;;;;;;11.70;99.70;;;;;;5030261;28;19916;-83
2021/05/27 00:04:28;;;;;;;;;;;11.70;99.70;;;;;;5030204;28;20239;-83
2021/05/27 00:06:53;;;;;;;;;;;11.60;99.60;;;;;;5032246;28;20387;-84
2021/05/27 00:09:19;;;;;;;;;;;11.60;99.80;;;;;;5029837;28;19909;-83
2021/05/27 00:11:44;;;;;;;;;;;11.70;99.80;;;;;;5031591;28;19909;-82
2021/05/27 00:14:10;;;;;;;;;;;11.70;99.60;;;;;;5031637;28;20088;-82
2021/05/27 00:16:35;;;;;;;;;;;11.70;99.60;;;;;;5030046;28;20358;-82
2021/05/27 00:19:01;;;;;;;;;;;11.70;99.60;;;;;;5033192;28;19909;-83
2021/05/27 00:21:27;;;;;;;;;;;11.70;99.80;;;;;;5032110;28;19916;-82
2021/05/27 00:23:52;;;;;;;;;;;11.70;99.70;;;;;;5033338;28;19964;-83
2021/05/27 00:26:18;;;;;;;;;;;11.70;99.80;;;;;;5032299;28;19988;-82
2021/05/27 00:28:43;;;;;;;;;;;11.70;99.50;;;;;;5033224;28;19916;-83
2021/05/27 00:31:09;;;;;;;;;;;11.70;99.60;;;;;;5031553;28;19921;-82
2021/05/27 00:33:35;;;;;;;;;;;11.70;99.50;;;;;;5032315;28;19948;-83
2021/05/27 00:36:01;;;;;;;;;;;11.70;99.50;;;;;;5034844;28;20293;-82
2021/05/27 00:38:27;;;;;;;;;;;11.70;99.40;;;;;;5033260;28;20373;-83
2021/05/27 00:40:52;;;;;;;;;;;11.70;99.40;;;;;;5034625;28;20012;-84
2021/05/27 00:43:18;;;;;;;;;;;11.70;99.30;;;;;;5034547;28;20337;-83
2021/05/27 00:45:43;;;;;;;;;;;11.70;99.40;;;;;;5033528;28;20290;-82
2021/05/27 00:48:56;;;;;;;;;;;11.60;99.50;;;;;;5035018;28;19920;-82
2021/05/27 00:50:54;;;;;;;;;;;11.70;99.50;;;;;;5033861;28;19992;-83
2021/05/27 00:53:20;;;;;;;;;;;11.70;99.40;;;;;;5033567;28;19963;-85
2021/05/27 00:55:46;;;;;;;;;;;11.70;99.40;;;;;;5033129;28;19917;-83
2021/05/27 00:58:12;;;;;;;;;;;11.70;99.50;;;;;;5033882;28;20267;-82
2021/05/27 01:00:38;;;;;;;;;;;11.70;99.50;;;;;;5032804;28;19909;-82
2021/05/27 01:03:03;;;;;;;;;;;11.70;99.50;;;;;;5032997;28;20417;-82
2021/05/27 01:05:29;;;;;;;;;;;11.70;99.50;;;;;;5034318;28;19951;-83
2021/05/27 01:07:54;;;;;;;;;;;11.70;99.40;;;;;;5033767;28;19956;-83
2021/05/27 01:10:20;;;;;;;;;;;11.70;99.40;;;;;;5032439;28;20366;-82
2021/05/27 01:12:45;;;;;;;;;;;11.70;99.40;;;;;;5032910;28;19910;-83
2021/05/27 01:18:15;;;;;;;;;;;11.70;99.50;;;;;;5032732;28;19909;-83
2021/05/27 01:20:42;;;;;;;;;;;11.70;99.50;;;;;;5033816;28;19909;-83
2021/05/27 01:23:09;;;;;;;;;;;11.70;99.40;;;;;;5032773;28;19917;-82
2021/05/27 01:25:35;;;;;;;;;;;11.70;99.50;;;;;;5032936;28;20278;-84
2021/05/27 01:28:01;;;;;;;;;;;11.70;99.40;;;;;;5034406;28;19978;-83
2021/05/27 01:30:26;;;;;;;;;;;11.70;99.40;;;;;;5031360;28;20403;-82
2021/05/27 01:32:52;;;;;;;;;;;11.70;99.40;;;;;;5033140;28;20373;-83
2021/05/27 01:35:19;;;;;;;;;;;11.70;99.40;;;;;;5032699;28;19952;-82
2021/05/27 01:37:45;;;;;;;;;;;11.70;99.30;;;;;;5032389;28;19952;-83
2021/05/27 01:40:11;;;;;;;;;;;11.70;99.30;;;;;;5032057;28;19909;-83
2021/05/27 01:42:37;;;;;;;;;;;11.60;99.60;;;;;;5032255;28;20325;-83
2021/05/27 01:45:03;;;;;;;;;;;11.70;99.50;;;;;;5033506;28;19909;-83
2021/05/27 01:47:29;;;;;;;;;;;11.70;99.50;;;;;;5034271;28;20281;-83
2021/05/27 01:49:54;;;;;;;;;;;11.70;99.50;;;;;;5032038;28;19909;-82
2021/05/27 01:52:20;;;;;;;;;;;11.70;99.50;;;;;;5032786;28;19909;-82
2021/05/27 01:54:45;;;;;;;;;;;11.60;99.40;;;;;;5034000;28;19956;-84
2021/05/27 01:57:11;;;;;;;;;;;11.60;99.50;;;;;;5032416;28;20438;-82
2021/05/27 01:59:36;;;;;;;;;;;11.60;99.50;;;;;;5031584;28;20250;-83
2021/05/27 02:02:02;;;;;;;;;;;11.60;99.50;;;;;;5031723;28;19974;-83
2021/05/27 02:04:27;;;;;;;;;;;11.60;99.50;;;;;;5033538;28;19914;-83
2021/05/27 02:06:53;;;;;;;;;;;11.50;99.90;;;;;;5032511;28;19909;-82
2021/05/27 02:09:18;;;;;;;;;;;11.50;99.90;;;;;;5031653;28;19913;-83
2021/05/27 02:11:45;;;;;;;;;;;11.60;99.90;;;;;;5033976;28;19909;-83
2021/05/27 02:14:12;;;;;;;;;;;11.50;99.90;;;;;;5031897;28;19909;-83
2021/05/27 02:16:38;;;;;;;;;;;11.50;99.90;;;;;;5032303;28;19910;-83
2021/05/27 02:19:04;;;;;;;;;;;11.50;99.90;;;;;;5032554;28;20289;-82
2021/05/27 02:21:30;;;;;;;;;;;11.50;99.90;;;;;;5031545;28;19909;-85
2021/05/27 02:23:56;;;;;;;;;;;11.50;99.90;;;;;;5032879;28;19928;-83
2021/05/27 02:26:22;;;;;;;;;;;11.50;99.90;;;;;;5031872;28;19909;-83
2021/05/27 02:28:48;;;;;;;;;;;11.40;99.90;;;;;;5030915;28;20362;-87
2021/05/27 02:31:15;;;;;;;;;;;11.40;99.90;;;;;;5029650;28;19960;-84
2021/05/27 02:33:40;;;;;;;;;;;11.50;99.90;;;;;;5031523;28;19917;-83
2021/05/27 02:36:06;;;;;;;;;;;11.40;99.90;;;;;;5031868;28;19920;-82
2021/05/27 02:38:32;;;;;;;;;;;11.40;99.90;;;;;;5033133;28;19992;-83
2021/05/27 02:40:58;;;;;;;;;;;11.50;99.90;;;;;;5030129;28;20362;-83
2021/05/27 02:43:24;;;;;;;;;;;11.50;99.90;;;;;;5032717;28;19954;-82
2021/05/27 02:45:49;;;;;;;;;;;11.50;99.90;;;;;;5032002;28;19913;-83
2021/05/27 02:48:15;;;;;;;;;;;11.50;99.90;;;;;;5032632;28;20011;-83
2021/05/27 02:50:40;;;;;;;;;;;11.40;99.70;;;;;;5031089;28;19992;-84
2021/05/27 02:53:06;;;;;;;;;;;11.40;99.50;;;;;;5031139;28;19910;-83
2021/05/27 02:55:31;;;;;;;;;;;11.40;99.50;;;;;;5031442;28;19920;-84
2021/05/27 02:57:57;;;;;;;;;;;11.40;99.40;;;;;;5031246;28;19920;-84
2021/05/27 03:00:22;;;;;;;;;;;11.40;99.30;;;;;;5031953;28;20243;-84
2021/05/27 03:02:48;;;;;;;;;;;11.40;99.20;;;;;;5030585;28;19917;-83
2021/05/27 03:05:13;;;;;;;;;;;11.40;98.60;;;;;;5032435;28;19909;-83
2021/05/27 03:07:39;;;;;;;;;;;11.40;98.70;;;;;;5031875;28;19909;-83
2021/05/27 03:10:05;;;;;;;;;;;11.40;98.60;;;;;;5030733;28;20381;-83
2021/05/27 03:12:30;;;;;;;;;;;11.40;98.70;;;;;;5030398;28;19974;-83
2021/05/27 03:14:56;;;;;;;;;;;11.30;98.50;;;;;;5031134;28;19924;-83
2021/05/27 03:17:21;;;;;;;;;;;11.40;98.90;;;;;;5032575;28;19910;-83
2021/05/27 03:19:47;;;;;;;;;;;11.40;98.70;;;;;;5030775;28;19953;-84
2021/05/27 03:22:13;;;;;;;;;;;11.40;98.70;;;;;;5030612;28;19916;-83
2021/05/27 03:24:38;;;;;;;;;;;11.40;99.00;;;;;;5030967;28;20367;-83
2021/05/27 03:27:04;;;;;;;;;;;11.40;98.60;;;;;;5030922;28;19910;-83
2021/05/27 03:29:29;;;;;;;;;;;11.40;98.80;;;;;;5031673;28;19917;-85
2021/05/27 03:31:55;;;;;;;;;;;11.40;98.60;;;;;;5030268;28;19909;-83
2021/05/27 03:34:20;;;;;;;;;;;11.40;98.50;;;;;;5031018;28;19958;-83
2021/05/27 03:36:46;;;;;;;;;;;11.40;98.40;;;;;;5032193;28;19910;-83
2021/05/27 03:39:11;;;;;;;;;;;11.40;98.60;;;;;;5030434;28;19909;-83
2021/05/27 03:41:37;;;;;;;;;;;11.30;98.70;;;;;;5031274;28;19923;-82
2021/05/27 03:44:03;;;;;;;;;;;11.20;99.10;;;;;;5032754;28;19909;-83
2021/05/27 03:46:28;;;;;;;;;;;11.20;99.20;;;;;;5031099;28;19955;-83
2021/05/27 03:48:54;;;;;;;;;;;11.20;99.30;;;;;;5031460;28;19976;-84
2021/05/27 03:51:20;;;;;;;;;;;11.20;99.20;;;;;;5031636;28;20378;-83
2021/05/27 03:53:45;;;;;;;;;;;11.20;99.40;;;;;;5033906;28;20313;-83
2021/05/27 03:56:11;;;;;;;;;;;11.10;99.60;;;;;;5033435;28;19913;-83
2021/05/27 04:01:20;;;;;;;;;;;11.20;99.90;;;;;;5035458;28;20508;-83
2021/05/27 04:09:14;;;;;;;;;;;11.00;99.90;;;;;;5034623;28;20297;-85
2021/05/27 04:11:40;;;;;;;;;;;11.10;99.90;;;;;;5034765;28;19909;-82
2021/05/27 04:14:05;;;;;;;;;;;11.00;99.90;;;;;;5034544;28;19909;-83
2021/05/27 04:16:31;;;;;;;;;;;10.90;99.90;;;;;;5034274;28;19913;-83
2021/05/27 04:18:56;;;;;;;;;;;10.90;99.90;;;;;;5034549;28;20370;-84
2021/05/27 04:21:22;;;;;;;;;;;10.80;99.90;;;;;;5032718;28;19916;-82
2021/05/27 04:23:48;;;;;;;;;;;10.90;99.90;;;;;;5032694;28;20273;-83
2021/05/27 04:26:14;;;;;;;;;;;10.90;99.90;;;;;;5034147;28;19981;-84
2021/05/27 04:28:40;;;;;;;;;;;10.90;99.90;;;;;;5033708;28;19914;-82
2021/05/27 04:31:10;;;;;;;;;;;10.80;99.90;;;;;;5033098;28;19910;-86
2021/05/27 04:33:56;;;;;;;;;;;10.90;99.90;;;;;;5032105;28;19944;-83
2021/05/27 04:36:22;;;;;;;;;;;10.80;99.90;;;;;;5032964;28;19913;-83
2021/05/27 04:38:48;;;;;;;;;;;10.90;99.90;;;;;;5032263;28;19920;-83
2021/05/27 04:41:15;;;;;;;;;;;10.80;99.90;;;;;;5033399;28;20004;-83
2021/05/27 04:43:41;;;;;;;;;;;10.80;99.90;;;;;;5032893;28;19979;-83
2021/05/27 04:46:07;;;;;;;;;;;10.80;99.90;;;;;;5032423;28;19909;-82
2021/05/27 04:48:32;;;;;;;;;;;10.80;99.90;;;;;;5031915;28;19932;-83
2021/05/27 04:50:58;;;;;;;;;;;10.80;99.90;;;;;;5032796;28;20392;-83
2021/05/27 04:53:24;;;;;;;;;;;10.80;99.90;;;;;;5031735;28;19909;-83
2021/05/27 04:55:50;;;;;;;;;;;10.80;99.90;;;;;;5031550;28;19913;-83
2021/05/27 04:58:16;;;;;;;;;;;10.70;99.90;;;;;;5032037;28;19909;-83
2021/05/27 05:00:41;;;;;;;;;;;10.80;99.90;;;;;;5031127;28;19909;-84
2021/05/27 05:03:07;;;;;;;;;;;10.70;99.90;;;;;;5031444;28;19913;-83
2021/05/27 05:05:34;;;;;;;;;;;10.70;99.90;;;;;;5030006;28;19909;-83
2021/05/27 05:08:00;;;;;;;;;;;10.70;99.90;;;;;;5031568;28;20343;-83
2021/05/27 05:10:26;;;;;;;;;;;10.70;99.90;;;;;;5030798;28;19917;-83
2021/05/27 05:12:52;;;;;;;;;;;10.70;99.90;;;;;;5030483;28;19909;-83
2021/05/27 05:15:18;;;;;;;;;;;10.80;99.90;;;;;;5031707;28;20397;-83
2021/05/27 05:17:46;;;;;;;;;;;10.70;99.90;;;;;;5032307;28;19909;-83
2021/05/27 05:20:12;;;;;;;;;;;10.70;99.90;;;;;;5033343;28;20309;-83
2021/05/27 05:22:37;;;;;;;;;;;10.60;99.90;;;;;;5034450;28;19921;-84
2021/05/27 05:25:03;;;;;;;;;;;10.70;99.90;;;;;;5032792;28;20007;-83
2021/05/27 05:27:29;;;;;;;;;;;10.60;99.90;;;;;;5034413;28;19913;-83
2021/05/27 05:29:54;;;;;;;;;;;10.60;99.90;;;;;;5032018;28;19909;-84
2021/05/27 05:32:20;;;;;;;;;;;10.60;99.90;;;;;;5033532;28;19909;-83
2021/05/27 05:34:45;;;;;;;;;;;10.60;99.90;;;;;;5034112;28;19913;-83
2021/05/27 05:37:11;;;;;;;;;;;10.60;99.90;;;;;;5034703;28;19999;-83
2021/05/27 05:39:36;;;;;;;;;;;10.60;99.90;;;;;;5033387;28;19909;-85
2021/05/27 05:42:02;;;;;;;;;;;10.60;99.90;;;;;;5033092;28;19909;-83
2021/05/27 05:44:27;;;;;;;;;;;10.60;99.90;;;;;;5033026;28;19966;-83
2021/05/27 05:46:53;;;;;;;;;;;10.60;99.90;;;;;;5033964;28;19909;-83
2021/05/27 05:49:18;;;;;;;;;;;10.60;99.90;;;;;;5031879;28;19963;-82
2021/05/27 05:51:44;;;;;;;;;;;10.60;99.90;;;;;;5033948;28;19909;-83
2021/05/27 05:54:09;;;;;;;;;;;10.60;99.90;;;;;;5033546;28;20384;-82
2021/05/27 05:56:35;;;;;;;;;;;10.60;99.90;;;;;;5032266;28;19913;-83
2021/05/27 05:59:00;;;;;;;;;;;10.60;99.90;;;;;;5032425;28;19913;-83
2021/05/27 06:01:26;;;;;;;;;;;10.60;99.90;;;;;;5032969;28;19936;-83
2021/05/27 06:03:51;;;;;;;;;;;10.60;99.90;;;;;;5033866;28;19909;-83
2021/05/27 06:06:17;;;;;;;;;;;10.60;99.90;;;;;;5033545;28;19909;-84
2021/05/27 06:08:43;;;;;;;;;;;10.50;99.90;;;;;;5033440;28;19909;-83
2021/05/27 06:11:08;;;;;;;;;;;10.60;99.90;;;;;;5034088;28;20125;-84
2021/05/27 06:13:34;;;;;;;;;;;10.60;99.90;;;;;;5034524;28;19959;-85
2021/05/27 06:15:59;;;;;;;;;;;10.60;99.90;;;;;;5034502;28;19913;-84
2021/05/27 06:18:25;;;;;;;;;;;10.70;99.90;;;;;;5032946;28;20326;-82
2021/05/27 06:20:51;;;;;;;;;;;10.70;99.90;;;;;;5032219;28;19909;-83
2021/05/27 06:23:16;;;;;;;;;;;10.60;99.90;;;;;;5033408;28;19918;-84
2021/05/27 06:25:42;;;;;;;;;;;10.60;99.90;;;;;;5033720;28;19917;-83
2021/05/27 06:28:07;;;;;;;;;;;10.60;99.90;;;;;;5033393;28;19910;-82
2021/05/27 06:30:33;;;;;;;;;;;10.60;99.90;;;;;;5034746;28;20414;-84
2021/05/27 06:33:00;;;;;;;;;;;10.60;99.90;;;;;;5034161;28;19910;-83
2021/05/27 06:35:26;;;;;;;;;;;10.70;99.90;;;;;;5034571;28;19952;-86
2021/05/27 06:37:51;;;;;;;;;;;10.70;99.90;;;;;;5033183;28;19909;-85
2021/05/27 06:40:20;;;;;;;;;;;10.70;99.90;;;;;;5032628;28;19910;-83
2021/05/27 06:42:46;;;;;;;;;;;10.70;99.90;;;;;;5033795;28;19914;-84
2021/05/27 06:45:12;;;;;;;;;;;10.70;99.90;;;;;;5031347;28;19977;-82
2021/05/27 06:47:38;;;;;;;;;;;10.70;99.90;;;;;;5032268;28;19916;-85
2021/05/27 06:50:04;;;;;;;;;;;10.70;99.90;;;;;;5032296;28;20294;-83
2021/05/27 06:52:29;;;;;;;;;;;10.70;99.90;;;;;;5030580;28;19909;-83
2021/05/27 06:54:55;;;;;;;;;;;10.60;99.90;;;;;;5033524;28;19913;-83
2021/05/27 06:57:21;;;;;;;;;;;10.60;99.90;;;;;;5030994;28;19909;-83
2021/05/27 06:59:46;;;;;;;;;;;10.60;99.90;;;;;;5029981;28;19909;-84
2021/05/27 07:02:12;;;;;;;;;;;10.60;99.90;;;;;;5030703;28;20279;-83
2021/05/27 07:04:38;;;;;;;;;;;10.60;99.90;;;;;;5030856;28;19916;-83
2021/05/27 07:07:03;;;;;;;;;;;10.70;99.90;;;;;;5030402;28;19909;-83
2021/05/27 07:09:29;;;;;;;;;;;10.70;99.90;;;;;;5030387;28;19913;-83
2021/05/27 07:11:55;;;;;;;;;;;10.60;99.90;;;;;;5032305;28;19959;-82
2021/05/27 07:14:20;;;;;;;;;;;10.60;99.90;;;;;;5032081;28;19980;-83
2021/05/27 07:16:46;;;;;;;;;;;10.60;99.90;;;;;;5031153;28;19966;-83
2021/05/27 07:19:11;;;;;;;;;;;10.60;99.90;;;;;;5030217;28;19916;-83
2021/05/27 07:21:37;;;;;;;;;;;10.60;99.90;;;;;;5029935;28;20397;-83
2021/05/27 07:24:02;;;;;;;;;;;10.60;99.90;;;;;;5031518;28;19962;-83
2021/05/27 07:26:28;;;;;;;;;;;10.60;99.90;;;;;;5030449;28;19962;-83
2021/05/27 07:28:54;;;;;;;;;;;10.60;99.90;;;;;;5029771;28;19958;-83
2021/05/27 07:31:19;;;;;;;;;;;10.60;99.90;;;;;;5030936;28;19909;-84
2021/05/27 07:33:45;;;;;;;;;;;10.50;99.90;;;;;;5030308;28;20366;-83
2021/05/27 07:36:10;;;;;;;;;;;10.60;99.90;;;;;;5031148;28;20384;-83
2021/05/27 07:38:36;;;;;;;;;;;10.60;99.90;;;;;;5030147;28;20297;-84
2021/05/27 07:41:02;;;;;;;;;;;10.60;99.90;;;;;;5029245;28;19910;-83
2021/05/27 07:43:27;;;;;;;;;;;10.60;99.90;;;;;;5030522;28;19917;-83
2021/05/27 07:45:53;;;;;;;;;;;10.60;99.90;;;;;;5029685;28;19909;-83
2021/05/27 07:48:18;;;;;;;;;;;10.60;99.90;;;;;;5031673;28;19913;-83
2021/05/27 07:50:44;;;;;;;;;;;10.60;99.90;;;;;;5029379;28;20282;-84
2021/05/27 07:53:11;;;;;;;;;;;10.60;99.90;;;;;;5031491;28;19916;-85
2021/05/27 07:55:37;;;;;;;;;;;10.60;99.90;;;;;;5029762;28;19917;-83
2021/05/27 07:58:03;;;;;;;;;;;10.60;99.90;;;;;;5029945;28;19932;-82
2021/05/27 08:00:28;;;;;;;;;;;10.60;99.90;;;;;;5029901;28;20377;-83
2021/05/27 08:02:54;;;;;;;;;;;10.60;99.90;;;;;;5030393;28;20404;-83
2021/05/27 08:05:20;;;;;;;;;;;10.60;99.90;;;;;;5031929;28;19909;-83
2021/05/27 08:07:46;;;;;;;;;;;10.60;99.90;;;;;;5030511;28;19909;-82
2021/05/27 08:10:12;;;;;;;;;;;10.60;99.90;;;;;;5029784;28;19913;-83
2021/05/27 08:12:38;;;;;;;;;;;10.60;99.90;;;;;;5030874;28;19910;-84
2021/05/27 08:15:05;;;;;;;;;;;10.70;99.90;;;;;;5031148;28;19913;-85
2021/05/27 08:17:31;;;;;;;;;;;10.70;99.90;;;;;;5031474;28;19909;-83
2021/05/27 08:19:56;;;;;;;;;;;10.70;99.90;;;;;;5030515;28;19909;-83
2021/05/27 08:22:22;;;;;;;;;;;10.70;99.90;;;;;;5031412;28;19958;-84
2021/05/27 08:24:47;;;;;;;;;;;10.70;99.90;;;;;;5029721;28;19914;-83
2021/05/27 08:27:13;;;;;;;;;;;10.70;99.90;;;;;;5029960;28;19909;-82
2021/05/27 08:29:38;;;;;;;;;;;10.70;99.90;;;;;;5028994;28;19913;-83
2021/05/27 08:32:07;;;;;;;;;;;10.70;99.90;;;;;;5030127;28;19909;-83
2021/05/27 08:34:33;;;;;;;;;;;10.70;99.90;;;;;;5029551;28;20282;-83
2021/05/27 08:36:58;;;;;;;;;;;10.70;99.90;;;;;;5031012;28;19921;-84
2021/05/27 08:39:24;;;;;;;;;;;10.70;99.90;;;;;;5032248;28;19917;-82
2021/05/27 08:41:53;;;;;;;;;;;10.70;99.90;;;;;;5033418;28;19909;-83
2021/05/27 08:44:18;;;;;;;;;;;10.70;99.90;;;;;;5033167;28;20000;-83
2021/05/27 08:46:46;;;;;;;;;;;10.70;99.90;;;;;;5033065;28;19977;-83
2021/05/27 08:49:12;;;;;;;;;;;10.70;99.90;;;;;;5032207;28;19917;-83
2021/05/27 08:51:38;;;;;;;;;;;10.70;99.90;;;;;;5032736;28;19909;-83
2021/05/27 08:54:05;;;;;;;;;;;10.70;99.90;;;;;;5033271;28;19915;-82
2021/05/27 08:56:30;;;;;;;;;;;10.80;99.90;;;;;;5033048;28;20334;-83
2021/05/27 08:58:56;;;;;;;;;;;10.70;99.90;;;;;;5032378;28;19955;-83
2021/05/27 09:01:23;;;;;;;;;;;10.70;99.90;;;;;;5031595;28;19909;-82
2021/05/27 09:03:49;;;;;;;;;;;10.70;99.90;;;;;;5031568;28;19948;-83
2021/05/27 09:06:15;;;;;;;;;;;10.70;99.90;;;;;;5031650;28;19916;-83
2021/05/27 09:08:41;;;;;;;;;;;10.80;99.90;;;;;;5032727;28;19978;-83
2021/05/27 09:11:07;;;;;;;;;;;10.80;99.90;;;;;;5030838;28;19909;-85
2021/05/27 09:13:33;;;;;;;;;;;10.80;99.90;;;;;;5031318;28;19932;-82
2021/05/27 09:16:06;;;;;;;;;;;10.80;99.90;;;;;;5031083;28;19918;-83
2021/05/27 09:18:33;;;;;;;;;;;10.80;99.90;;;;;;5032340;28;19915;-83
2021/05/27 09:21:00;;;;;;;;;;;10.80;99.90;;;;;;5030657;28;19920;-82
2021/05/27 09:23:26;;;;;;;;;;;10.80;99.90;;;;;;5030900;28;19924;-84
2021/05/27 09:26:03;;;;;;;;;;;10.90;99.90;;;;;;5032458;28;20249;-84
2021/05/27 09:28:29;;;;;;;;;;;10.90;99.90;;;;;;5030840;28;19921;-83
2021/05/27 09:30:57;;;;;;;;;;;10.80;99.90;;;;;;5030115;28;19909;-82
2021/05/27 09:33:30;;;;;;;;;;;10.90;99.90;;;;;;5032153;28;20281;-83
2021/05/27 09:36:02;;;;;;;;;;;10.80;99.90;;;;;;5030458;28;19964;-84
2021/05/27 09:38:29;;;;;;;;;;;10.70;99.90;;;;;;5030635;28;20375;-83
2021/05/27 09:40:54;;;;;;;;;;;10.70;99.90;;;;;;5031471;28;19962;-83
2021/05/27 09:43:23;;;;;;;;;;;10.70;99.90;;;;;;5030283;28;19913;-82
2021/05/27 09:46:08;;;;;;;;;;;10.80;99.90;;;;;;5031622;28;19913;-83
2021/05/27 09:48:34;;;;;;;;;;;10.80;99.90;;;;;;5030254;28;20361;-82
2021/05/27 09:51:01;;;;;;;;;;;10.80;99.90;;;;;;5029045;28;19909;-83
2021/05/27 09:53:28;;;;;;;;;;;10.80;99.90;;;;;;5030108;28;19949;-83
2021/05/27 09:55:54;;;;;;;;;;;10.80;99.90;;;;;;5030037;28;19960;-82
2021/05/27 09:58:21;;;;;;;;;;;10.80;99.90;;;;;;5030082;28;20404;-83
2021/05/27 10:00:47;;;;;;;;;;;10.80;99.90;;;;;;5030537;28;19909;-84
2021/05/27 10:03:33;;;;;;;;;;;10.80;99.90;;;;;;5030731;28;19914;-83
2021/05/27 10:06:09;;;;;;;;;;;10.80;99.90;;;;;;5031334;28;20305;-83
2021/05/27 10:08:52;;;;;;;;;;;10.90;99.90;;;;;;5031513;28;19909;-83
2021/05/27 10:11:18;;;;;;;;;;;10.90;99.90;;;;;;5032579;28;19997;-82
2021/05/27 10:13:43;;;;;;;;;;;10.90;99.90;;;;;;5031356;28;19913;-83
2021/05/27 10:16:16;;;;;;;;;;;10.90;99.90;;;;;;5032659;28;20449;-84
2021/05/27 10:18:42;;;;;;;;;;;10.80;99.90;;;;;;5031512;28;19969;-82
2021/05/27 10:21:08;;;;;;;;;;;10.80;99.90;;;;;;5031925;28;19909;-82
2021/05/27 10:23:34;;;;;;;;;;;10.90;99.90;;;;;;5031781;28;20035;-82
2021/05/27 10:26:00;;;;;;;;;;;10.90;99.90;;;;;;5032574;28;19944;-83
2021/05/27 10:28:26;;;;;;;;;;;11.00;99.90;;;;;;5031542;28;19913;-83
2021/05/27 10:30:52;;;;;;;;;;;10.90;99.90;;;;;;5030194;28;19910;-83
2021/05/27 10:33:20;;;;;;;;;;;10.90;99.90;;;;;;5030988;28;20293;-83
2021/05/27 10:35:53;;;;;;;;;;;10.90;99.90;;;;;;5031030;28;19913;-85
2021/05/27 10:38:41;;;;;;;;;;;11.00;99.90;;;;;;5031646;28;19920;-83
2021/05/27 10:41:10;;;;;;;;;;;10.90;99.90;;;;;;5030220;28;20282;-84
2021/05/27 10:43:36;;;;;;;;;;;10.90;99.90;;;;;;5031218;28;19957;-82
2021/05/27 10:46:06;;;;;;;;;;;10.90;99.90;;;;;;5030924;28;20016;-82
2021/05/27 10:48:38;;;;;;;;;;;10.90;99.90;;;;;;5032317;28;19917;-84
2021/05/27 10:51:16;;;;;;;;;;;10.90;99.90;;;;;;5030896;28;19909;-84
2021/05/27 10:53:42;;;;;;;;;;;10.90;99.90;;;;;;5031155;28;19920;-84
2021/05/27 10:56:07;;;;;;;;;;;10.90;99.90;;;;;;5030455;28;19913;-82
2021/05/27 10:58:45;;;;;;;;;;;10.90;99.90;;;;;;5030888;28;19910;-82
2021/05/27 11:01:11;;;;;;;;;;;10.90;99.90;;;;;;5031516;28;20279;-82
2021/05/27 11:03:42;;;;;;;;;;;10.90;99.90;;;;;;5030446;28;19910;-82
2021/05/27 11:06:27;;;;;;;;;;;10.90;99.90;;;;;;5031376;28;19916;-83
2021/05/27 11:09:13;;;;;;;;;;;10.90;99.90;;;;;;5032585;27;19962;-84
2021/05/27 11:11:42;;;;;;;;;;;11.00;99.90;;;;;;5031707;28;19917;-83
2021/05/27 11:14:18;;;;;;;;;;;10.90;99.90;;;;;;5031451;28;19909;-83
2021/05/27 11:17:14;;;;;;;;;;;10.90;99.90;;;;;;5031213;28;19974;-84
2021/05/27 11:25:16;;;;;;;;;;;11.00;99.90;;;;;;5032181;28;19917;-83
2021/05/27 11:27:43;;;;;;;;;;;11.00;99.90;;;;;;5030556;28;19909;-83
2021/05/27 11:30:32;;;;;;;;;;;11.10;99.90;;;;;;5031451;28;19917;-82
2021/05/27 11:33:17;;;;;;;;;;;11.10;99.90;;;;;;5022631;28;19909;-84
2021/05/27 11:35:43;;;;;;;;;;;11.20;99.90;;;;;;5030260;28;19935;-84
2021/05/27 11:38:11;;;;;;;;;;;11.20;99.90;;;;;;5030180;28;19917;-83
2021/05/27 11:40:41;;;;;;;;;;;11.10;99.90;;;;;;5028099;28;19956;-84
2021/05/27 11:43:07;;;;;;;;;;;11.10;99.90;;;;;;5028239;28;19916;-84
2021/05/27 11:45:43;;;;;;;;;;;11.20;99.90;;;;;;5030473;28;19909;-85
2021/05/27 11:48:26;;;;;;;;;;;11.20;99.90;;;;;;5029258;28;20358;-84
2021/05/27 11:50:59;;;;;;;;;;;11.10;99.90;;;;;;5028040;28;19916;-84
2021/05/27 11:53:25;;;;;;;;;;;11.10;99.90;;;;;;5029758;28;20042;-84
2021/05/27 11:55:54;;;;;;;;;;;11.10;99.90;;;;;;5029593;28;20011;-84
2021/05/27 11:58:31;;;;;;;;;;;11.00;99.90;;;;;;5028529;28;19909;-83
2021/05/27 12:00:57;;;;;;;;;;;11.10;99.90;;;;;;5027821;28;19909;-83
2021/05/27 12:03:22;;;;;;;;;;;11.10;99.90;;;;;;5028490;28;19916;-85
2021/05/27 12:05:48;;;;;;;;;;;11.10;99.90;;;;;;5029777;28;20294;-84
2021/05/27 12:08:14;;;;;;;;;;;11.20;99.90;;;;;;5029383;28;19909;-84
2021/05/27 12:10:50;;;;;;;;;;;11.20;99.90;;;;;;5028009;28;19910;-84
2021/05/27 12:13:16;;;;;;;;;;;11.30;99.90;;;;;;5030484;28;20374;-82
2021/05/27 12:15:42;;;;;;;;;;;11.30;99.90;;;;;;5032271;28;20393;-83
2021/05/27 12:18:11;;;;;;;;;;;11.40;99.90;;;;;;5032911;28;19940;-84
2021/05/27 12:20:37;;;;;;;;;;;11.40;99.90;;;;;;5031040;28;19913;-84
2021/05/27 12:23:05;;;;;;;;;;;11.30;99.90;;;;;;5032602;28;19913;-84
2021/05/27 12:25:33;;;;;;;;;;;11.40;99.90;;;;;;5032775;28;19910;-84
2021/05/27 12:28:00;;;;;;;;;;;11.50;99.90;;;;;;5031375;28;19913;-84
2021/05/27 12:30:31;;;;;;;;;;;11.60;99.90;;;;;;5030522;28;19920;-83
2021/05/27 12:32:57;;;;;;;;;;;11.70;99.90;;;;;;5030864;28;20383;-84
2021/05/27 12:35:24;;;;;;;;;;;11.60;99.90;;;;;;5031286;28;19964;-84
2021/05/27 12:37:50;;;;;;;;;;;11.70;99.90;;;;;;5031311;28;20446;-84
2021/05/27 12:40:22;;;;;;;;;;;11.70;99.90;;;;;;5030458;28;19909;-84
2021/05/27 12:42:48;;;;;;;;;;;11.70;99.90;;;;;;5032244;28;19909;-83
2021/05/27 12:45:23;;;;;;;;;;;11.70;99.90;;;;;;5031072;28;19916;-84
2021/05/27 12:48:07;;;;;;;;;;;11.60;99.90;;;;;;5031153;28;19909;-84
2021/05/27 12:50:33;;;;;;;;;;;11.60;99.90;;;;;;5030536;28;20003;-84
2021/05/27 12:52:59;;;;;;;;;;;11.60;99.90;;;;;;5030942;28;19920;-85
2021/05/27 12:55:28;;;;;;;;;;;11.60;99.90;;;;;;5032225;28;19913;-83
2021/05/27 12:57:54;;;;;;;;;;;11.60;99.90;;;;;;5032368;28;19956;-85
2021/05/27 13:00:21;;;;;;;;;;;11.60;99.90;;;;;;5031836;28;19966;-84
2021/05/27 13:03:00;;;;;;;;;;;11.60;99.90;;;;;;5030809;28;20422;-84
2021/05/27 13:05:25;;;;;;;;;;;11.60;99.90;;;;;;5032386;28;19953;-84
2021/05/27 13:07:55;;;;;;;;;;;11.70;99.90;;;;;;5031120;28;19909;-83
2021/05/27 13:10:46;;;;;;;;;;;11.70;99.90;;;;;;5030146;28;20025;-83
2021/05/27 13:13:12;;;;;;;;;;;11.70;99.90;;;;;;5030201;28;20342;-84
2021/05/27 13:15:40;;;;;;;;;;;11.60;99.90;;;;;;5030786;28;19914;-84
2021/05/27 13:18:07;;;;;;;;;;;11.60;99.90;;;;;;5030733;28;20011;-84
2021/05/27 13:20:52;;;;;;;;;;;11.60;99.90;;;;;;5030293;28;19913;-83
2021/05/27 13:23:24;;;;;;;;;;;11.60;99.70;;;;;;5032063;28;19921;-83
2021/05/27 13:25:50;;;;;;;;;;;11.60;99.70;;;;;;5031213;28;19909;-84
2021/05/27 13:28:26;;;;;;;;;;;11.60;99.80;;;;;;5030720;28;20358;-83
2021/05/27 13:30:52;;;;;;;;;;;11.60;99.90;;;;;;5029955;28;19958;-83
2021/05/27 13:33:20;;;;;;;;;;;11.70;99.80;;;;;;5030557;28;19993;-83
2021/05/27 13:35:47;;;;;;;;;;;11.70;99.80;;;;;;5030344;28;19928;-83
2021/05/27 13:38:17;;;;;;;;;;;11.70;99.50;;;;;;5031256;28;19910;-83
2021/05/27 13:40:43;;;;;;;;;;;11.80;99.30;;;;;;5030012;28;19917;-84
2021/05/27 13:43:08;;;;;;;;;;;11.90;99.20;;;;;;5030331;28;19913;-84
2021/05/27 13:45:35;;;;;;;;;;;11.90;99.60;;;;;;5030470;28;20276;-83
2021/05/27 13:48:01;;;;;;;;;;;11.90;98.70;;;;;;5030464;28;19909;-84
2021/05/27 13:50:29;;;;;;;;;;;12.00;98.90;;;;;;5029817;28;20343;-84
2021/05/27 13:52:55;;;;;;;;;;;12.00;98.80;;;;;;5029746;28;19913;-83
2021/05/27 13:55:23;;;;;;;;;;;12.00;98.30;;;;;;5030144;28;19913;-84
2021/05/27 13:57:49;;;;;;;;;;;12.00;98.00;;;;;;5031514;28;20297;-84
2021/05/27 14:00:15;;;;;;;;;;;12.00;98.60;;;;;;5029775;28;19909;-83
2021/05/27 14:02:41;;;;;;;;;;;12.00;98.50;;;;;;5029716;28;19949;-84
2021/05/27 14:05:07;;;;;;;;;;;12.00;98.50;;;;;;5029828;28;19910;-84
2021/05/27 14:07:33;;;;;;;;;;;12.00;98.40;;;;;;5031124;28;19909;-83
2021/05/27 14:09:58;;;;;;;;;;;12.00;98.70;;;;;;5029223;28;19913;-83
2021/05/27 14:12:24;;;;;;;;;;;12.00;98.30;;;;;;5029761;28;19910;-83
2021/05/27 14:14:52;;;;;;;;;;;12.00;98.60;;;;;;5029554;28;19910;-84
2021/05/27 14:17:17;;;;;;;;;;;12.00;98.10;;;;;;5029583;28;19913;-84
2021/05/27 14:19:43;;;;;;;;;;;12.00;97.90;;;;;;5029160;28;19909;-83
2021/05/27 14:22:08;;;;;;;;;;;12.00;98.10;;;;;;5029570;28;19966;-83
2021/05/27 14:24:34;;;;;;;;;;;11.90;98.30;;;;;;5029446;28;20004;-83
2021/05/27 14:27:03;;;;;;;;;;;11.90;98.30;;;;;;5029497;28;20011;-83
2021/05/27 14:29:29;;;;;;;;;;;11.90;98.30;;;;;;5028825;28;19932;-83
2021/05/27 14:31:55;;;;;;;;;;;11.90;98.50;;;;;;5030564;28;19909;-83
2021/05/27 14:34:20;;;;;;;;;;;11.90;98.30;;;;;;5029719;28;19989;-84